Terminal Aerodrome Forecast
Issued by NWS

Home | Current Version | Previous Version | Graphics & Text | Print | Product List | Glossary Off
Versions: 1 2 3 4 5 6 7 8 9 10 11 12 13 14 15 16 17

000
FTUS41 KCLE 021728
TAFFDY
TAF
KFDY 021728Z 0218/0318 24010G20KT P6SM SCT015 OVC040
      TEMPO 0218/0220 -SHRA OVC015
     FM022000 27010KT P6SM SCT025 OVC040
     FM030300 27007KT P6SM SCT040
     FM031200 26006KT P6SM OVC025=

USA.gov is the U.S. government's official web portal to all federal, state and local government web resources and services.